createdAt,value
2017-10-06T00:10:00.625Z,82
2017-10-06T00:21:56.627Z,82
2017-10-06T00:33:52.381Z,82
2017-10-06T00:45:48.324Z,82
2017-10-06T00:57:44.304Z,82
2017-10-06T01:09:40.226Z,81
2017-10-06T01:21:36.225Z,79
2017-10-06T01:33:31.967Z,82
2017-10-06T01:45:27.807Z,79
2017-10-06T01:57:23.400Z,82
2017-10-06T02:09:19.307Z,79
2017-10-06T02:21:15.359Z,81
2017-10-06T02:33:11.386Z,82
2017-10-06T02:45:08.019Z,81
2017-10-06T02:57:04.262Z,82
2017-10-06T03:09:00.715Z,82
2017-10-06T03:20:56.688Z,81
2017-10-06T03:32:53.740Z,81
2017-10-06T03:44:49.725Z,82
2017-10-06T03:56:45.907Z,81
2017-10-06T04:08:42.075Z,79
2017-10-06T04:20:36.467Z,80
2017-10-06T04:32:32.905Z,82
2017-10-06T04:44:28.863Z,81
2017-10-06T04:56:25.190Z,81
2017-10-06T05:08:22.947Z,80
2017-10-06T05:20:22.822Z,80
2017-10-06T05:32:26.007Z,81
2017-10-06T05:44:22.970Z,81
2017-10-06T05:56:19.745Z,80
2017-10-06T06:08:15.882Z,81
2017-10-06T06:20:12.066Z,81
2017-10-06T06:32:07.168Z,80
2017-10-06T06:44:03.808Z,81
2017-10-06T06:56:01.149Z,81
2017-10-06T07:07:57.711Z,81
2017-10-06T07:19:54.164Z,79
2017-10-06T07:31:53.341Z,77
2017-10-06T07:43:52.249Z,80
2017-10-06T07:55:50.187Z,80
2017-10-06T08:07:57.769Z,80
2017-10-06T08:19:58.782Z,80
2017-10-06T08:43:47.187Z,77
2017-10-06T08:55:50.144Z,80
2017-10-06T09:07:58.605Z,80
2017-10-06T09:20:00.563Z,78
2017-10-06T09:32:01.042Z,80
2017-10-06T09:44:04.502Z,79
2017-10-06T09:56:04.901Z,77
2017-10-06T10:08:13.185Z,79
2017-10-06T10:20:24.444Z,79
2017-10-06T10:32:27.431Z,79
2017-10-06T10:44:27.607Z,77
2017-10-06T10:56:26.050Z,80
2017-10-06T11:08:32.947Z,77
2017-10-06T11:20:37.566Z,77
2017-10-06T11:33:06.165Z,77
2017-10-06T11:45:07.388Z,79
2017-10-06T11:57:13.248Z,79
2017-10-06T12:09:14.868Z,79
2017-10-06T12:21:15.291Z,77
2017-10-06T12:33:27.364Z,79
2017-10-06T12:57:24.024Z,77
2017-10-06T13:09:30.968Z,79
2017-10-06T13:21:35.851Z,79
2017-10-06T13:33:41.184Z,79
2017-10-06T13:45:49.304Z,79
2017-10-06T13:57:58.889Z,79
2017-10-06T14:10:07.870Z,79
2017-10-06T14:34:43.668Z,77
2017-10-06T14:46:52.842Z,78
2017-10-06T14:59:15.332Z,79
2017-10-06T15:11:37.983Z,79
2017-10-06T15:35:40.043Z,77
2017-10-06T15:47:48.821Z,79
2017-10-06T16:00:05.529Z,79
2017-10-06T16:12:20.541Z,78
2017-10-06T16:24:28.608Z,79
2017-10-06T16:36:29.066Z,79
2017-10-06T16:48:28.132Z,77
2017-10-06T17:00:28.070Z,78
2017-10-06T17:12:26.363Z,75
2017-10-06T17:24:24.929Z,78
2017-10-06T17:36:30.927Z,75
2017-10-06T17:48:30.466Z,78
2017-10-06T18:00:33.471Z,75
2017-10-06T18:12:34.130Z,77
2017-10-06T18:24:34.869Z,77
2017-10-06T18:36:33.847Z,76
2017-10-06T18:48:33.464Z,77
2017-10-06T19:00:35.368Z,76
2017-10-06T19:12:34.045Z,77
2017-10-06T19:24:38.568Z,77
2017-10-06T19:36:41.145Z,77
2017-10-06T19:48:38.488Z,77
2017-10-06T20:00:36.266Z,77
2017-10-06T20:12:32.723Z,76
2017-10-06T20:24:29.466Z,77
2017-10-06T20:36:26.787Z,75
2017-10-06T20:48:24.135Z,76
2017-10-06T21:00:23.308Z,74
2017-10-06T21:12:21.605Z,77
2017-10-06T21:24:18.619Z,74
2017-10-06T21:36:15.869Z,76
2017-10-06T21:48:12.748Z,76
2017-10-06T22:00:12.534Z,73
2017-10-06T22:12:10.211Z,76
2017-10-06T22:24:10.416Z,75
2017-10-06T22:36:11.706Z,73
2017-10-06T22:48:16.275Z,75
2017-10-06T23:00:18.789Z,73
2017-10-06T23:12:23.954Z,73
2017-10-06T23:24:28.436Z,75
2017-10-06T23:36:34.428Z,75
2017-10-06T23:48:35.307Z,75
